Time;durP1;ratioP1;P1;durP2;ratioP2;P2;SDS_P1;SDS_P2;PMS_P1;PMS_P2;Temp;Humidity;BMP_temperature;BMP_pressure;BME280_temperature;BME280_humidity;BME280_pressure;Samples;Min_cycle;Max_cycle;Signal;HPM_P1;HPM_P2
2023/10/27 00:01:55;;;;;;;143.25;98.97;;;;;;;;;;5044407;28;25078;-60
2023/10/27 00:04:21;;;;;;;138.07;96.05;;;;;;;;;;5045091;28;25128;-61
2023/10/27 00:06:47;;;;;;;134.30;97.13;;;;;;;;;;5045298;28;25120;-61
2023/10/27 00:09:13;;;;;;;144.80;94.70;;;;;;;;;;5045698;28;25106;-61
2023/10/27 00:11:39;;;;;;;162.35;95.85;;;;;;;;;;5047264;28;25064;-61
2023/10/27 00:14:05;;;;;;;129.73;91.93;;;;;;;;;;5038701;28;25157;-61
2023/10/27 00:16:32;;;;;;;151.35;94.90;;;;;;;;;;5043938;28;25137;-62
2023/10/27 00:18:58;;;;;;;143.75;84.40;;;;;;;;;;5038167;28;25058;-61
2023/10/27 00:21:24;;;;;;;133.40;84.95;;;;;;;;;;5037190;28;25052;-62
2023/10/27 00:23:50;;;;;;;124.68;82.97;;;;;;;;;;5043863;28;25065;-62
2023/10/27 00:26:16;;;;;;;100.65;77.20;;;;;;;;;;5033041;28;25060;-63
2023/10/27 00:28:42;;;;;;;125.03;81.40;;;;;;;;;;5034541;28;25063;-62
2023/10/27 00:31:07;;;;;;;128.00;79.45;;;;;;;;;;5033726;28;25083;-62
2023/10/27 00:33:34;;;;;;;125.82;80.10;;;;;;;;;;5044016;28;25077;-63
2023/10/27 00:36:00;;;;;;;164.68;86.85;;;;;;;;;;5040741;28;25081;-64
2023/10/27 00:38:26;;;;;;;146.70;85.78;;;;;;;;;;5040893;28;25100;-65
2023/10/27 00:40:52;;;;;;;103.07;75.28;;;;;;;;;;5044578;28;25058;-63
2023/10/27 00:43:18;;;;;;;166.10;87.32;;;;;;;;;;5012469;28;25071;-63
2023/10/27 00:45:47;;;;;;;126.75;85.15;;;;;;;;;;5011493;28;25071;-65
2023/10/27 00:48:13;;;;;;;134.18;86.35;;;;;;;;;;5007580;28;25060;-64
2023/10/27 00:50:39;;;;;;;129.15;88.07;;;;;;;;;;5023717;28;25072;-63
2023/10/27 00:53:05;;;;;;;122.80;77.72;;;;;;;;;;5043659;28;25089;-64
2023/10/27 00:55:32;;;;;;;99.03;72.68;;;;;;;;;;5036274;28;25166;-64
2023/10/27 00:57:58;;;;;;;131.82;80.10;;;;;;;;;;5033584;28;25103;-63
2023/10/27 01:00:24;;;;;;;125.57;80.93;;;;;;;;;;5038849;28;25105;-64
2023/10/27 01:02:50;;;;;;;128.98;81.25;;;;;;;;;;5038222;28;25081;-64
2023/10/27 01:05:16;;;;;;;101.28;78.85;;;;;;;;;;5017015;28;25078;-63
2023/10/27 01:07:42;;;;;;;133.63;85.80;;;;;;;;;;5017628;28;25136;-63
2023/10/27 01:10:08;;;;;;;158.93;90.18;;;;;;;;;;5012850;28;25094;-63
2023/10/27 01:12:34;;;;;;;143.45;88.75;;;;;;;;;;5021929;28;25137;-64
2023/10/27 01:15:00;;;;;;;148.88;90.45;;;;;;;;;;5040083;28;25135;-66
2023/10/27 01:17:26;;;;;;;147.57;93.95;;;;;;;;;;5039928;28;25060;-66
2023/10/27 01:19:52;;;;;;;146.68;94.43;;;;;;;;;;5032483;28;25154;-65
2023/10/27 01:22:18;;;;;;;166.57;94.03;;;;;;;;;;5042221;28;25130;-64
2023/10/27 01:24:44;;;;;;;142.35;93.00;;;;;;;;;;5041267;28;25081;-64
2023/10/27 01:27:10;;;;;;;134.73;93.10;;;;;;;;;;5032348;28;25054;-63
2023/10/27 01:29:36;;;;;;;141.02;93.90;;;;;;;;;;5038992;28;25072;-62
2023/10/27 01:32:01;;;;;;;114.40;87.13;;;;;;;;;;5046619;28;25095;-63
2023/10/27 01:34:27;;;;;;;134.13;89.63;;;;;;;;;;5042149;28;25106;-62
2023/10/27 01:36:53;;;;;;;130.40;90.38;;;;;;;;;;5046108;28;25070;-63
2023/10/27 01:39:19;;;;;;;164.75;95.47;;;;;;;;;;5041337;28;25076;-62
2023/10/27 01:41:45;;;;;;;165.00;94.60;;;;;;;;;;5038640;28;25061;-63
2023/10/27 01:44:11;;;;;;;164.07;92.35;;;;;;;;;;5037770;28;25058;-64
2023/10/27 01:46:37;;;;;;;154.38;92.85;;;;;;;;;;5034090;28;25093;-62
2023/10/27 01:49:03;;;;;;;131.48;90.85;;;;;;;;;;5040054;28;25055;-62
2023/10/27 01:51:29;;;;;;;140.55;94.78;;;;;;;;;;5041844;28;25086;-62
2023/10/27 01:53:55;;;;;;;134.23;74.40;;;;;;;;;;5029230;28;25101;-63
2023/10/27 01:56:21;;;;;;;129.60;65.75;;;;;;;;;;5040976;28;25123;-64
2023/10/27 01:58:47;;;;;;;140.40;60.78;;;;;;;;;;5044845;28;25100;-63
2023/10/27 02:01:14;;;;;;;133.48;56.00;;;;;;;;;;5044430;28;25058;-63
2023/10/27 02:03:40;;;;;;;140.63;53.40;;;;;;;;;;5040317;28;25088;-62
2023/10/27 02:06:06;;;;;;;94.45;48.42;;;;;;;;;;5041045;28;25065;-65
2023/10/27 02:08:35;;;;;;;145.23;56.65;;;;;;;;;;5042346;28;25075;-63
2023/10/27 02:11:01;;;;;;;150.60;52.72;;;;;;;;;;5039741;28;25117;-63
2023/10/27 02:13:28;;;;;;;127.35;52.50;;;;;;;;;;5040885;28;25083;-62
2023/10/27 02:15:53;;;;;;;125.80;46.13;;;;;;;;;;5040302;28;25075;-62
2023/10/27 02:18:19;;;;;;;132.88;45.50;;;;;;;;;;5040166;28;25082;-62
2023/10/27 02:20:47;;;;;;;114.78;47.35;;;;;;;;;;5040161;28;25058;-62
2023/10/27 02:23:14;;;;;;;119.47;46.88;;;;;;;;;;5044674;28;25095;-62
2023/10/27 02:25:40;;;;;;;126.65;50.58;;;;;;;;;;5041830;28;25072;-63
2023/10/27 02:28:06;;;;;;;119.07;48.33;;;;;;;;;;5043996;28;25129;-62
2023/10/27 02:30:32;;;;;;;121.78;49.53;;;;;;;;;;5042651;28;25080;-63
2023/10/27 02:32:58;;;;;;;120.72;51.97;;;;;;;;;;5039556;28;25061;-63
2023/10/27 02:35:25;;;;;;;129.23;52.72;;;;;;;;;;5033174;28;25090;-63
2023/10/27 02:37:51;;;;;;;113.72;49.92;;;;;;;;;;5038682;28;25115;-62
2023/10/27 02:40:17;;;;;;;139.10;54.42;;;;;;;;;;5025832;28;25059;-63
2023/10/27 02:42:43;;;;;;;141.63;53.78;;;;;;;;;;5026742;28;25052;-62
2023/10/27 02:45:10;;;;;;;139.02;55.97;;;;;;;;;;5031078;28;25074;-62
2023/10/27 02:47:35;;;;;;;115.10;50.47;;;;;;;;;;5047044;28;25152;-62
2023/10/27 02:50:02;;;;;;;161.75;57.63;;;;;;;;;;5047837;28;25091;-61
2023/10/27 02:52:28;;;;;;;153.85;56.15;;;;;;;;;;5049267;28;25155;-62
2023/10/27 02:54:53;;;;;;;151.20;51.80;;;;;;;;;;5049483;28;25175;-63
2023/10/27 02:57:19;;;;;;;122.80;48.05;;;;;;;;;;5043771;28;25062;-62
2023/10/27 02:59:45;;;;;;;151.43;50.88;;;;;;;;;;5031754;28;25050;-62
2023/10/27 03:02:11;;;;;;;134.75;52.72;;;;;;;;;;5038758;28;25096;-62
2023/10/27 03:04:37;;;;;;;159.82;54.25;;;;;;;;;;5037162;28;25079;-63
2023/10/27 03:07:03;;;;;;;152.95;52.65;;;;;;;;;;5033699;28;25066;-62
2023/10/27 03:09:29;;;;;;;113.30;46.90;;;;;;;;;;5040351;28;25051;-62
2023/10/27 03:11:55;;;;;;;143.07;53.85;;;;;;;;;;5039771;28;25081;-62
2023/10/27 03:14:21;;;;;;;131.57;48.47;;;;;;;;;;5044489;28;25066;-63
2023/10/27 03:16:47;;;;;;;124.40;51.28;;;;;;;;;;5042953;28;25147;-62
2023/10/27 03:19:17;;;;;;;150.82;54.92;;;;;;;;;;5043549;28;25073;-63
2023/10/27 03:21:43;;;;;;;118.05;50.75;;;;;;;;;;5042050;28;25061;-63
2023/10/27 03:24:09;;;;;;;144.63;53.53;;;;;;;;;;5037858;28;25075;-65
2023/10/27 03:26:35;;;;;;;114.90;49.35;;;;;;;;;;5037086;28;25158;-64
2023/10/27 03:29:01;;;;;;;132.68;54.22;;;;;;;;;;5043454;28;25104;-63
2023/10/27 03:31:28;;;;;;;106.68;48.85;;;;;;;;;;5039761;28;25078;-63
2023/10/27 03:33:54;;;;;;;108.75;49.80;;;;;;;;;;5034851;28;25131;-63
2023/10/27 03:36:21;;;;;;;116.50;50.53;;;;;;;;;;5044007;28;25487;-64
2023/10/27 03:38:47;;;;;;;120.47;52.10;;;;;;;;;;5043190;28;25092;-64
2023/10/27 03:41:13;;;;;;;111.63;48.55;;;;;;;;;;5047036;28;25098;-63
2023/10/27 03:43:39;;;;;;;117.32;51.03;;;;;;;;;;5044804;28;25078;-63
2023/10/27 03:46:07;;;;;;;111.45;48.22;;;;;;;;;;5041920;28;25057;-62
2023/10/27 03:48:34;;;;;;;108.15;49.60;;;;;;;;;;5046178;28;25060;-63
2023/10/27 03:51:02;;;;;;;123.47;50.90;;;;;;;;;;5036052;28;25052;-63
2023/10/27 03:53:28;;;;;;;119.50;48.88;;;;;;;;;;5038976;28;25176;-63
2023/10/27 03:55:54;;;;;;;77.88;43.20;;;;;;;;;;5042041;28;25120;-63
2023/10/27 03:58:20;;;;;;;123.57;50.10;;;;;;;;;;5028593;28;25116;-63
2023/10/27 04:00:46;;;;;;;95.10;48.42;;;;;;;;;;5021233;28;25181;-63
2023/10/27 04:03:12;;;;;;;104.30;51.35;;;;;;;;;;5017596;28;25147;-63
2023/10/27 04:05:39;;;;;;;98.90;50.28;;;;;;;;;;5015458;28;25117;-61
2023/10/27 04:08:05;;;;;;;148.20;54.53;;;;;;;;;;5017384;28;25081;-62
2023/10/27 04:10:32;;;;;;;101.47;49.08;;;;;;;;;;5020110;28;25205;-62
2023/10/27 04:12:58;;;;;;;150.40;56.03;;;;;;;;;;5017339;28;25051;-63
2023/10/27 04:15:24;;;;;;;128.15;57.17;;;;;;;;;;5023276;28;25078;-63
2023/10/27 04:17:50;;;;;;;117.45;56.80;;;;;;;;;;5020969;28;25094;-64
2023/10/27 04:20:16;;;;;;;130.32;58.67;;;;;;;;;;5022041;28;25063;-63
2023/10/27 04:22:42;;;;;;;123.68;58.72;;;;;;;;;;5025796;28;25077;-63
2023/10/27 04:25:09;;;;;;;121.70;57.53;;;;;;;;;;5025267;28;25084;-63
2023/10/27 04:27:36;;;;;;;93.55;56.90;;;;;;;;;;5020720;28;25156;-63
2023/10/27 04:30:04;;;;;;;118.78;62.05;;;;;;;;;;5015957;28;25059;-63
2023/10/27 04:32:31;;;;;;;106.82;58.25;;;;;;;;;;5019360;28;25137;-62
2023/10/27 04:34:57;;;;;;;117.25;57.08;;;;;;;;;;5022627;28;25059;-61
2023/10/27 04:37:23;;;;;;;135.63;57.38;;;;;;;;;;5021253;28;25068;-63
2023/10/27 04:39:50;;;;;;;112.30;58.95;;;;;;;;;;5016629;28;25070;-63
2023/10/27 04:42:18;;;;;;;118.78;61.03;;;;;;;;;;5021010;28;25075;-62
2023/10/27 04:44:44;;;;;;;122.03;64.10;;;;;;;;;;5034801;28;25149;-65
2023/10/27 04:47:10;;;;;;;127.13;56.17;;;;;;;;;;5045256;28;25095;-63
2023/10/27 04:49:36;;;;;;;118.85;56.45;;;;;;;;;;5037753;28;25077;-65
2023/10/27 04:52:01;;;;;;;111.80;57.85;;;;;;;;;;5041809;28;25058;-63
2023/10/27 04:54:31;;;;;;;112.15;58.75;;;;;;;;;;5047173;28;25069;-63
2023/10/27 04:56:57;;;;;;;88.93;56.63;;;;;;;;;;5042160;28;25137;-62
2023/10/27 04:59:23;;;;;;;106.72;55.92;;;;;;;;;;5044678;28;25102;-63
2023/10/27 05:01:49;;;;;;;115.07;56.25;;;;;;;;;;5042921;28;25055;-64
2023/10/27 05:04:14;;;;;;;91.93;52.70;;;;;;;;;;5023220;28;25141;-62
2023/10/27 05:06:40;;;;;;;105.95;55.63;;;;;;;;;;5039270;28;25074;-63
2023/10/27 05:09:06;;;;;;;87.65;52.15;;;;;;;;;;5044897;28;25152;-62
2023/10/27 05:11:32;;;;;;;91.95;51.38;;;;;;;;;;5047124;28;25040;-62
2023/10/27 05:13:58;;;;;;;93.53;51.92;;;;;;;;;;5046483;28;25103;-62
2023/10/27 05:16:24;;;;;;;112.10;52.88;;;;;;;;;;5047108;28;25095;-64
2023/10/27 05:18:50;;;;;;;78.40;49.60;;;;;;;;;;5043200;28;25181;-63
2023/10/27 05:21:17;;;;;;;96.75;54.10;;;;;;;;;;5045317;28;25093;-63
2023/10/27 05:23:43;;;;;;;105.40;54.85;;;;;;;;;;5040759;28;25076;-62
2023/10/27 05:26:09;;;;;;;103.45;53.70;;;;;;;;;;5039174;28;25136;-62
2023/10/27 05:28:35;;;;;;;107.53;52.22;;;;;;;;;;5042941;28;25058;-63
2023/10/27 05:31:01;;;;;;;119.38;57.40;;;;;;;;;;5043246;28;25092;-63
2023/10/27 05:33:27;;;;;;;95.45;54.22;;;;;;;;;;5038300;28;25142;-63
2023/10/27 05:35:53;;;;;;;107.00;53.88;;;;;;;;;;5038123;28;25054;-64
2023/10/27 05:38:19;;;;;;;75.88;48.78;;;;;;;;;;5040788;28;25058;-64
2023/10/27 05:40:45;;;;;;;82.70;50.75;;;;;;;;;;5041407;28;25066;-63
2023/10/27 05:43:12;;;;;;;133.18;53.70;;;;;;;;;;5041483;28;25067;-63
2023/10/27 05:45:38;;;;;;;96.85;48.35;;;;;;;;;;5039820;28;25136;-63
2023/10/27 05:48:05;;;;;;;79.18;44.95;;;;;;;;;;5036764;28;25066;-63
2023/10/27 05:50:30;;;;;;;79.72;46.60;;;;;;;;;;5040901;28;25063;-63
2023/10/27 05:52:58;;;;;;;78.70;44.85;;;;;;;;;;5038199;28;25080;-64
2023/10/27 05:55:25;;;;;;;86.53;48.25;;;;;;;;;;5044449;28;25139;-63
2023/10/27 05:57:51;;;;;;;65.78;43.67;;;;;;;;;;5034362;28;25083;-63
2023/10/27 06:00:17;;;;;;;92.22;50.42;;;;;;;;;;5041819;28;25145;-64
2023/10/27 06:02:43;;;;;;;90.25;50.33;;;;;;;;;;5040203;28;25043;-65
2023/10/27 06:05:09;;;;;;;92.60;48.17;;;;;;;;;;5041423;28;25148;-64
2023/10/27 06:07:36;;;;;;;110.35;48.50;;;;;;;;;;5044319;28;25058;-64
2023/10/27 06:10:01;;;;;;;91.70;43.50;;;;;;;;;;5038904;28;25048;-64
2023/10/27 06:12:27;;;;;;;73.32;43.58;;;;;;;;;;5039502;28;25093;-62
2023/10/27 06:14:53;;;;;;;52.10;38.20;;;;;;;;;;5044075;28;25068;-63
2023/10/27 06:17:19;;;;;;;80.05;43.67;;;;;;;;;;5039900;28;25065;-64
2023/10/27 06:19:45;;;;;;;132.52;46.08;;;;;;;;;;5044903;28;25080;-63
2023/10/27 06:22:12;;;;;;;84.78;41.22;;;;;;;;;;5037070;28;25118;-63
2023/10/27 06:24:38;;;;;;;69.35;38.90;;;;;;;;;;5041053;28;25145;-64
2023/10/27 06:27:05;;;;;;;79.22;40.53;;;;;;;;;;5039042;28;25199;-64
2023/10/27 06:29:31;;;;;;;92.07;43.90;;;;;;;;;;5044743;28;25108;-64
2023/10/27 06:31:57;;;;;;;88.82;42.45;;;;;;;;;;5045164;28;25145;-64
2023/10/27 06:34:23;;;;;;;92.32;42.28;;;;;;;;;;5035449;28;25147;-64
2023/10/27 06:36:49;;;;;;;125.20;46.67;;;;;;;;;;5040970;28;25120;-64
2023/10/27 06:39:15;;;;;;;84.85;39.78;;;;;;;;;;5040721;28;25066;-64
2023/10/27 06:41:41;;;;;;;89.50;39.17;;;;;;;;;;5044643;28;25134;-65
2023/10/27 06:44:07;;;;;;;65.90;34.65;;;;;;;;;;5040246;28;25080;-64
2023/10/27 06:46:33;;;;;;;86.80;39.17;;;;;;;;;;5044193;28;25062;-65
2023/10/27 06:48:59;;;;;;;74.10;34.55;;;;;;;;;;5041677;28;25085;-64
2023/10/27 06:51:25;;;;;;;77.80;34.75;;;;;;;;;;5039766;28;25101;-64
2023/10/27 06:53:51;;;;;;;57.72;32.17;;;;;;;;;;5043062;28;25125;-64
2023/10/27 06:56:17;;;;;;;66.85;32.95;;;;;;;;;;5041179;28;25056;-64
2023/10/27 06:58:43;;;;;;;87.07;36.63;;;;;;;;;;5041786;28;25163;-64
2023/10/27 07:01:09;;;;;;;62.80;32.38;;;;;;;;;;5036946;28;25143;-64
2023/10/27 07:03:37;;;;;;;53.15;29.08;;;;;;;;;;5044899;28;25121;-63
2023/10/27 07:06:03;;;;;;;70.43;36.75;;;;;;;;;;5040669;28;25049;-63
2023/10/27 07:08:30;;;;;;;56.20;30.63;;;;;;;;;;5040577;28;25091;-63
2023/10/27 07:10:58;;;;;;;87.68;32.88;;;;;;;;;;5039112;28;25073;-62
2023/10/27 07:13:25;;;;;;;82.60;34.90;;;;;;;;;;5041699;28;25075;-63
2023/10/27 07:15:51;;;;;;;73.88;36.25;;;;;;;;;;5041490;28;25060;-64
2023/10/27 07:18:17;;;;;;;62.03;34.50;;;;;;;;;;5040446;28;25056;-63
2023/10/27 07:20:43;;;;;;;74.53;33.85;;;;;;;;;;5043147;28;25107;-63
2023/10/27 07:23:09;;;;;;;71.22;34.92;;;;;;;;;;5040490;28;25059;-64
2023/10/27 07:25:35;;;;;;;70.75;32.78;;;;;;;;;;5043223;28;25055;-63
2023/10/27 07:28:01;;;;;;;59.25;30.55;;;;;;;;;;5045750;28;25064;-63
2023/10/27 07:30:27;;;;;;;47.78;29.10;;;;;;;;;;5043744;28;25065;-64
2023/10/27 07:32:54;;;;;;;54.80;32.05;;;;;;;;;;5042481;28;25065;-64
2023/10/27 07:35:20;;;;;;;56.42;31.45;;;;;;;;;;5036776;28;25065;-63
2023/10/27 07:37:46;;;;;;;51.38;31.15;;;;;;;;;;5043414;28;25067;-64
2023/10/27 07:40:13;;;;;;;44.10;28.60;;;;;;;;;;5041771;28;25054;-63
2023/10/27 07:42:39;;;;;;;68.72;35.92;;;;;;;;;;5043445;28;25093;-63
2023/10/27 07:45:06;;;;;;;74.68;36.85;;;;;;;;;;5040338;28;25072;-63
2023/10/27 07:47:32;;;;;;;78.55;38.13;;;;;;;;;;5045112;28;25055;-62
2023/10/27 07:50:00;;;;;;;58.03;36.75;;;;;;;;;;5041984;28;25088;-62
2023/10/27 07:52:26;;;;;;;68.97;38.50;;;;;;;;;;5043434;28;25063;-63
2023/10/27 07:54:52;;;;;;;67.82;38.55;;;;;;;;;;5045897;28;25076;-64
2023/10/27 07:57:17;;;;;;;62.60;36.30;;;;;;;;;;5040293;28;25062;-63
2023/10/27 07:59:44;;;;;;;65.75;38.63;;;;;;;;;;5042919;28;25124;-63
2023/10/27 08:02:10;;;;;;;72.13;39.33;;;;;;;;;;5042120;28;25158;-62
2023/10/27 08:04:37;;;;;;;75.65;41.50;;;;;;;;;;5045705;28;25129;-63
2023/10/27 08:07:03;;;;;;;75.05;42.40;;;;;;;;;;5040616;28;25059;-63
2023/10/27 08:09:29;;;;;;;71.32;39.67;;;;;;;;;;5035072;28;25159;-63
2023/10/27 08:11:55;;;;;;;66.40;37.83;;;;;;;;;;5044435;28;25085;-63
2023/10/27 08:14:21;;;;;;;56.13;35.97;;;;;;;;;;5039890;28;25095;-63
2023/10/27 08:16:47;;;;;;;65.15;38.92;;;;;;;;;;5045257;28;25277;-63
2023/10/27 08:19:13;;;;;;;71.03;41.45;;;;;;;;;;5041426;28;25084;-63
2023/10/27 08:21:40;;;;;;;64.07;38.28;;;;;;;;;;5045005;28;25121;-63
2023/10/27 08:24:06;;;;;;;57.60;37.05;;;;;;;;;;5042622;28;25074;-64
2023/10/27 08:26:32;;;;;;;69.43;38.22;;;;;;;;;;5042272;28;25057;-63
2023/10/27 08:28:58;;;;;;;61.90;35.83;;;;;;;;;;5042871;28;25162;-63
2023/10/27 08:31:24;;;;;;;70.15;38.55;;;;;;;;;;5044091;28;25069;-64
2023/10/27 08:33:50;;;;;;;48.50;34.42;;;;;;;;;;5042209;28;25081;-63
2023/10/27 08:36:16;;;;;;;66.18;38.80;;;;;;;;;;5044226;28;25076;-63
2023/10/27 08:38:42;;;;;;;60.13;34.97;;;;;;;;;;5046284;28;25047;-63
2023/10/27 08:41:09;;;;;;;45.08;30.23;;;;;;;;;;5045377;28;25166;-64
2023/10/27 08:43:37;;;;;;;80.68;37.58;;;;;;;;;;5043626;28;25066;-64
2023/10/27 08:46:06;;;;;;;50.50;33.95;;;;;;;;;;5043901;28;25087;-64
2023/10/27 08:48:35;;;;;;;49.83;34.40;;;;;;;;;;5043376;28;25055;-63
2023/10/27 08:51:04;;;;;;;54.85;36.20;;;;;;;;;;5038181;28;25068;-64
2023/10/27 08:53:30;;;;;;;51.92;35.72;;;;;;;;;;5042887;28;25047;-63
2023/10/27 08:55:57;;;;;;;68.05;37.50;;;;;;;;;;5042050;28;25084;-63
2023/10/27 08:58:23;;;;;;;57.45;37.90;;;;;;;;;;5041203;28;25059;-64
2023/10/27 09:00:49;;;;;;;76.53;40.53;;;;;;;;;;5044098;28;25072;-64
2023/10/27 09:03:16;;;;;;;62.17;38.40;;;;;;;;;;5042586;28;25073;-63
2023/10/27 09:05:42;;;;;;;50.58;37.47;;;;;;;;;;5037189;28;25082;-63
2023/10/27 09:08:09;;;;;;;71.80;36.85;;;;;;;;;;5041351;28;25177;-64
2023/10/27 09:10:36;;;;;;;49.65;34.30;;;;;;;;;;5041863;28;25086;-64
2023/10/27 09:13:04;;;;;;;52.35;31.27;;;;;;;;;;5039060;28;25131;-64
2023/10/27 09:15:46;;;;;;;60.92;35.10;;;;;;;;;;5041560;28;25306;-63
2023/10/27 09:18:13;;;;;;;47.70;34.08;;;;;;;;;;5040796;28;25097;-62
2023/10/27 09:20:48;;;;;;;49.92;32.08;;;;;;;;;;5038194;28;25057;-63
2023/10/27 09:23:14;;;;;;;34.45;29.27;;;;;;;;;;5042908;28;25156;-63
2023/10/27 09:25:40;;;;;;;30.00;26.48;;;;;;;;;;5044320;28;25110;-63
2023/10/27 09:28:06;;;;;;;42.65;32.30;;;;;;;;;;5040998;28;25153;-63
2023/10/27 09:30:33;;;;;;;38.97;30.27;;;;;;;;;;5042050;28;25114;-64
2023/10/27 09:33:18;;;;;;;28.42;25.60;;;;;;;;;;5045473;28;25155;-63
2023/10/27 09:35:44;;;;;;;29.55;26.30;;;;;;;;;;5042504;28;25073;-62
2023/10/27 09:38:10;;;;;;;32.47;25.20;;;;;;;;;;5042618;28;25154;-63
2023/10/27 09:40:37;;;;;;;33.45;22.73;;;;;;;;;;5043504;28;25069;-63
2023/10/27 09:43:04;;;;;;;31.50;23.25;;;;;;;;;;5044487;28;25099;-64
2023/10/27 09:45:35;;;;;;;28.75;23.20;;;;;;;;;;5041975;28;25107;-63
2023/10/27 09:48:02;;;;;;;28.40;21.65;;;;;;;;;;5043374;28;25128;-63
2023/10/27 09:50:29;;;;;;;22.38;20.08;;;;;;;;;;5043791;28;25096;-63
2023/10/27 09:53:00;;;;;;;24.90;18.20;;;;;;;;;;5044751;28;25075;-63
2023/10/27 09:55:27;;;;;;;19.40;17.45;;;;;;;;;;5042680;28;25049;-62
2023/10/27 09:57:53;;;;;;;28.38;19.77;;;;;;;;;;5043927;28;25059;-62
2023/10/27 10:00:19;;;;;;;31.63;24.63;;;;;;;;;;5041876;28;25134;-62
2023/10/27 10:02:45;;;;;;;26.08;21.75;;;;;;;;;;5044085;28;25067;-62
2023/10/27 10:05:11;;;;;;;25.50;22.85;;;;;;;;;;5043881;28;25141;-62
2023/10/27 10:07:43;;;;;;;30.73;22.92;;;;;;;;;;5037378;28;25146;-61
2023/10/27 10:10:34;;;;;;;34.22;23.38;;;;;;;;;;5042943;28;25055;-63
2023/10/27 10:13:03;;;;;;;28.13;24.65;;;;;;;;;;5039553;28;25063;-61
2023/10/27 10:15:31;;;;;;;26.65;23.75;;;;;;;;;;5043520;28;25052;-61
2023/10/27 10:17:57;;;;;;;30.13;25.45;;;;;;;;;;5043332;28;25175;-61
2023/10/27 10:20:44;;;;;;;32.33;26.55;;;;;;;;;;5044016;28;25073;-61
2023/10/27 10:23:10;;;;;;;24.33;22.30;;;;;;;;;;5040507;28;25090;-61
2023/10/27 10:25:36;;;;;;;24.75;22.40;;;;;;;;;;5044292;28;25116;-61
2023/10/27 10:28:08;;;;;;;29.08;25.98;;;;;;;;;;5043444;28;25133;-62
2023/10/27 10:30:34;;;;;;;42.40;29.58;;;;;;;;;;5044476;28;25081;-62
2023/10/27 10:33:15;;;;;;;31.58;27.42;;;;;;;;;;5046320;28;25057;-62
2023/10/27 10:35:42;;;;;;;41.45;31.35;;;;;;;;;;5044569;28;25048;-61
2023/10/27 10:38:21;;;;;;;29.42;26.38;;;;;;;;;;5045725;28;25089;-61
2023/10/27 10:40:51;;;;;;;26.92;24.60;;;;;;;;;;5044095;28;25048;-61
2023/10/27 10:43:20;;;;;;;34.28;30.35;;;;;;;;;;5044510;28;25137;-63
2023/10/27 10:46:00;;;;;;;34.83;30.73;;;;;;;;;;5040573;28;25113;-61
2023/10/27 10:48:27;;;;;;;36.22;32.00;;;;;;;;;;5043398;28;25045;-61
2023/10/27 10:50:55;;;;;;;38.08;32.75;;;;;;;;;;5041060;28;25132;-61
2023/10/27 10:53:24;;;;;;;33.85;30.60;;;;;;;;;;5036626;28;25043;-61
2023/10/27 10:55:50;;;;;;;41.42;33.78;;;;;;;;;;5031130;28;25080;-61
2023/10/27 10:58:20;;;;;;;50.22;36.20;;;;;;;;;;5032290;28;25130;-62
2023/10/27 11:00:48;;;;;;;41.40;35.33;;;;;;;;;;5033575;28;25078;-61
2023/10/27 11:03:14;;;;;;;50.10;38.05;;;;;;;;;;5033420;28;25104;-61
2023/10/27 11:05:41;;;;;;;43.55;35.90;;;;;;;;;;5039698;28;25093;-61
2023/10/27 11:08:07;;;;;;;57.90;41.45;;;;;;;;;;5036873;28;25154;-62
2023/10/27 11:10:34;;;;;;;44.22;38.35;;;;;;;;;;5045808;28;25059;-62
2023/10/27 11:13:01;;;;;;;44.60;39.47;;;;;;;;;;5034072;28;25056;-61
2023/10/27 11:15:43;;;;;;;45.47;39.13;;;;;;;;;;5045190;28;25071;-62
2023/10/27 11:18:14;;;;;;;43.78;38.55;;;;;;;;;;5034515;28;25138;-60
2023/10/27 11:20:40;;;;;;;53.50;40.15;;;;;;;;;;5036574;28;25053;-61
2023/10/27 11:23:10;;;;;;;46.95;38.92;;;;;;;;;;5043963;28;25069;-62
2023/10/27 11:25:36;;;;;;;44.08;39.28;;;;;;;;;;5033311;28;25061;-62
2023/10/27 11:28:37;;;;;;;60.05;40.90;;;;;;;;;;5044847;28;25064;-61
2023/10/27 11:31:13;;;;;;;45.97;36.88;;;;;;;;;;5043481;28;25150;-63
2023/10/27 11:33:57;;;;;;;47.42;40.03;;;;;;;;;;5038167;28;25128;-62
2023/10/27 11:36:27;;;;;;;39.15;35.15;;;;;;;;;;5039918;28;25080;-62
2023/10/27 11:38:53;;;;;;;37.90;33.85;;;;;;;;;;5044622;28;25046;-62
2023/10/27 11:41:20;;;;;;;39.22;35.22;;;;;;;;;;5037600;28;25818;-62
2023/10/27 11:43:46;;;;;;;40.72;36.55;;;;;;;;;;5035201;28;25156;-61
2023/10/27 11:46:18;;;;;;;41.85;37.42;;;;;;;;;;5034638;28;25057;-61
2023/10/27 11:48:45;;;;;;;36.78;33.03;;;;;;;;;;5036181;28;25052;-62
2023/10/27 11:51:12;;;;;;;33.15;30.20;;;;;;;;;;5036421;28;26190;-62
2023/10/27 11:53:43;;;;;;;34.10;30.98;;;;;;;;;;5036689;28;25059;-61
2023/10/27 11:56:09;;;;;;;37.53;33.88;;;;;;;;;;5036881;28;25060;-62
2023/10/27 11:58:35;;;;;;;34.20;31.35;;;;;;;;;;5046879;28;25104;-63
2023/10/27 12:01:01;;;;;;;33.25;30.27;;;;;;;;;;5038387;28;25075;-63
2023/10/27 12:03:27;;;;;;;34.17;31.05;;;;;;;;;;5039536;28;25090;-63
2023/10/27 12:05:53;;;;;;;34.80;31.95;;;;;;;;;;5042149;28;25158;-61
2023/10/27 12:08:20;;;;;;;35.05;31.95;;;;;;;;;;5040635;28;25103;-61
2023/10/27 12:10:48;;;;;;;32.13;29.50;;;;;;;;;;5038964;28;25057;-62
2023/10/27 12:13:14;;;;;;;33.75;30.95;;;;;;;;;;5045259;28;25072;-62
2023/10/27 12:15:40;;;;;;;35.35;32.42;;;;;;;;;;5044930;28;25064;-61
2023/10/27 12:18:06;;;;;;;35.97;32.78;;;;;;;;;;5045546;28;25074;-61
2023/10/27 12:20:33;;;;;;;38.00;34.53;;;;;;;;;;5046281;28;25088;-60
2023/10/27 12:22:59;;;;;;;37.40;34.13;;;;;;;;;;5038853;28;25075;-63
2023/10/27 12:25:25;;;;;;;34.33;31.40;;;;;;;;;;5042044;28;25139;-61
2023/10/27 12:27:51;;;;;;;33.13;30.13;;;;;;;;;;5043455;28;25064;-62
2023/10/27 12:30:17;;;;;;;31.50;29.05;;;;;;;;;;5040903;28;25125;-62
2023/10/27 12:32:44;;;;;;;30.13;28.02;;;;;;;;;;5038314;28;25157;-62
2023/10/27 12:35:11;;;;;;;29.30;27.13;;;;;;;;;;5039677;28;25108;-64
2023/10/27 12:37:37;;;;;;;29.17;27.17;;;;;;;;;;5042124;28;25078;-61
2023/10/27 12:40:06;;;;;;;28.48;26.33;;;;;;;;;;5041424;28;25059;-62
2023/10/27 12:42:32;;;;;;;27.73;25.65;;;;;;;;;;5047598;28;25079;-62
2023/10/27 12:44:58;;;;;;;27.15;25.45;;;;;;;;;;5046875;28;25126;-62
2023/10/27 12:47:25;;;;;;;27.08;24.95;;;;;;;;;;5040418;28;25103;-61
2023/10/27 12:49:51;;;;;;;24.98;23.48;;;;;;;;;;5016986;28;25067;-64
2023/10/27 12:52:17;;;;;;;27.02;25.02;;;;;;;;;;5025020;28;25140;-59
2023/10/27 12:54:43;;;;;;;27.33;25.20;;;;;;;;;;5020970;28;24716;-60
2023/10/27 12:57:09;;;;;;;27.90;25.88;;;;;;;;;;5012453;28;25154;-60
2023/10/27 12:59:35;;;;;;;25.60;23.90;;;;;;;;;;5015662;28;25125;-61
2023/10/27 13:02:01;;;;;;;25.60;24.00;;;;;;;;;;5024720;28;25097;-61
2023/10/27 13:04:27;;;;;;;24.95;23.20;;;;;;;;;;5016517;28;25106;-61
2023/10/27 13:06:53;;;;;;;26.27;24.58;;;;;;;;;;5019319;28;25108;-61
2023/10/27 13:09:20;;;;;;;25.10;23.30;;;;;;;;;;5021328;28;25077;-62
2023/10/27 13:11:47;;;;;;;24.38;22.88;;;;;;;;;;5021542;28;25066;-60
2023/10/27 13:14:13;;;;;;;24.75;23.15;;;;;;;;;;5020743;28;25087;-60
2023/10/27 13:16:40;;;;;;;26.48;24.55;;;;;;;;;;5020178;28;25078;-61
2023/10/27 13:19:06;;;;;;;23.33;21.55;;;;;;;;;;5023110;28;25086;-60
2023/10/27 13:21:33;;;;;;;22.45;21.02;;;;;;;;;;5023575;28;25094;-63
2023/10/27 13:24:00;;;;;;;20.55;19.05;;;;;;;;;;5029601;28;25051;-61
2023/10/27 13:26:28;;;;;;;18.00;16.90;;;;;;;;;;5036643;28;25103;-61
2023/10/27 13:28:55;;;;;;;14.93;14.07;;;;;;;;;;5049801;28;25106;-61
2023/10/27 13:31:21;;;;;;;15.95;14.98;;;;;;;;;;5044894;28;25090;-61
2023/10/27 13:33:47;;;;;;;12.82;11.88;;;;;;;;;;5043265;28;25051;-60
2023/10/27 13:36:14;;;;;;;14.30;12.93;;;;;;;;;;5043930;28;25041;-61
2023/10/27 13:38:43;;;;;;;13.52;12.45;;;;;;;;;;5040198;28;25093;-60
2023/10/27 13:41:18;;;;;;;13.10;12.13;;;;;;;;;;5045934;28;25079;-60
2023/10/27 13:43:44;;;;;;;9.18;8.48;;;;;;;;;;5044890;28;25123;-60
2023/10/27 13:46:10;;;;;;;8.80;8.20;;;;;;;;;;5046107;28;25073;-60
2023/10/27 13:48:36;;;;;;;8.70;8.10;;;;;;;;;;5045445;28;25051;-61
2023/10/27 13:51:09;;;;;;;8.82;8.23;;;;;;;;;;5050585;28;25143;-61
2023/10/27 13:53:35;;;;;;;7.40;7.00;;;;;;;;;;5046718;28;25077;-60
2023/10/27 13:56:01;;;;;;;7.20;6.70;;;;;;;;;;5053185;28;25074;-61
2023/10/27 13:58:27;;;;;;;6.85;6.38;;;;;;;;;;5046157;28;25102;-61
2023/10/27 14:00:53;;;;;;;7.53;6.93;;;;;;;;;;5045651;28;25069;-60
2023/10/27 14:03:19;;;;;;;7.57;6.82;;;;;;;;;;5045932;28;25155;-60
2023/10/27 14:05:49;;;;;;;8.15;7.65;;;;;;;;;;5043485;28;25062;-61
2023/10/27 14:08:15;;;;;;;7.50;7.07;;;;;;;;;;5046324;28;26237;-61
2023/10/27 14:10:41;;;;;;;7.40;7.00;;;;;;;;;;5046854;28;25080;-61
2023/10/27 14:13:07;;;;;;;7.05;6.40;;;;;;;;;;5046886;28;25057;-61